Gaylordsville, Connecticut
Current Conditions -  °F | °C
As of 10:53 PM on Saturday 22 Nov 2014 (Local Time) from KDXR Reporting Station
Scattered Clouds Scattered Clouds  
Wind Chill: 34°   Ceiling: Unl
Heat Index: 40°   Visibility: 10mi
Dew Point: 16°   Wind: 9mph
Humidity: 38%   Direction: 240°WSW
Pressure: 30.17"   Gusts: NA
Location:  41.65°N, 73.48°W
Report Text: KDXR 230353Z AUTO 24008KT 10SM SCT065 04/M09 A3017 RMK AO2 SLP219 T00441089
Loading
Personal Weather Stations






























Interactive Weather Map New forecast layout! Learn more

10-Day Weather Forecast

Advertisements
Track Severe Weather on mobile